createdAt,value
2018-06-03T00:01:49.302Z,100345.00
2018-06-03T00:04:16.829Z,100345.00
2018-06-03T00:06:44.377Z,100336.00
2018-06-03T00:09:11.926Z,100348.00
2018-06-03T00:11:39.510Z,100347.00
2018-06-03T00:14:07.902Z,100347.00
2018-06-03T00:16:35.446Z,100347.00
2018-06-03T00:19:02.994Z,100343.00
2018-06-03T00:21:42.417Z,100355.00
2018-06-03T00:24:10.034Z,100343.00
2018-06-03T00:26:37.594Z,100347.00
2018-06-03T00:29:05.190Z,100351.00
2018-06-03T00:31:32.757Z,100342.00
2018-06-03T00:34:00.372Z,100344.00
2018-06-03T00:36:45.461Z,100353.00
2018-06-03T00:39:13.006Z,100344.00
2018-06-03T00:41:40.546Z,100344.00
2018-06-03T00:44:08.095Z,100347.00
2018-06-03T00:46:35.650Z,100347.00
2018-06-03T00:49:03.210Z,100348.00
2018-06-03T00:51:30.737Z,100359.00
2018-06-03T00:53:58.269Z,100351.00
2018-06-03T00:56:43.381Z,100350.00
2018-06-03T00:59:10.936Z,100347.00
2018-06-03T01:01:38.509Z,100344.00
2018-06-03T01:04:06.063Z,100355.00
2018-06-03T01:06:33.613Z,100348.00
2018-06-03T01:09:01.158Z,100352.00
2018-06-03T01:11:28.715Z,100352.00
2018-06-03T01:13:56.303Z,100353.00
2018-06-03T01:16:23.846Z,100339.00
2018-06-03T01:18:51.398Z,100342.00
2018-06-03T01:21:19.002Z,100350.00
2018-06-03T01:23:46.572Z,100352.00
2018-06-03T01:26:14.121Z,100341.00
2018-06-03T01:28:41.691Z,100340.00
2018-06-03T01:31:09.247Z,100343.00
2018-06-03T01:33:36.802Z,100336.00
2018-06-03T01:36:04.381Z,100331.00
2018-06-03T01:38:31.937Z,100325.00
2018-06-03T01:40:59.498Z,100324.00
2018-06-03T01:43:27.076Z,100326.00
2018-06-03T01:45:56.731Z,100315.00
2018-06-03T01:48:24.299Z,100309.00
2018-06-03T01:50:51.862Z,100299.00
2018-06-03T01:53:19.414Z,100308.00
2018-06-03T01:55:46.962Z,100304.00
2018-06-03T01:58:14.513Z,100305.00
2018-06-03T02:00:42.061Z,100308.00
2018-06-03T02:03:09.607Z,100297.00
2018-06-03T02:05:37.153Z,100296.00
2018-06-03T02:08:04.717Z,100300.00
2018-06-03T02:10:32.245Z,100298.00
2018-06-03T02:12:59.792Z,100295.00
2018-06-03T02:15:27.334Z,100304.00
2018-06-03T02:17:54.870Z,100299.00
2018-06-03T02:20:22.401Z,100305.00
2018-06-03T02:22:49.954Z,100301.00
2018-06-03T02:25:17.537Z,100303.00
2018-06-03T02:27:45.088Z,100308.00
2018-06-03T02:30:12.647Z,100305.00
2018-06-03T02:32:40.197Z,100310.00
2018-06-03T02:35:07.742Z,100314.00
2018-06-03T02:37:35.282Z,100311.00
2018-06-03T02:40:02.873Z,100313.00
2018-06-03T02:42:30.432Z,100315.00
2018-06-03T02:44:57.973Z,100306.00
2018-06-03T02:47:25.535Z,100314.00
2018-06-03T02:49:53.097Z,100320.00
2018-06-03T02:52:20.637Z,100319.00
2018-06-03T02:54:48.209Z,100326.00
2018-06-03T02:57:15.745Z,100324.00
2018-06-03T02:59:43.281Z,100321.00
2018-06-03T03:02:10.809Z,100320.00
2018-06-03T03:04:38.362Z,100334.00
2018-06-03T03:07:05.914Z,100333.00
2018-06-03T03:09:33.469Z,100334.00
2018-06-03T03:12:01.035Z,100335.00
2018-06-03T03:14:28.610Z,100325.00
2018-06-03T03:16:56.147Z,100324.00
2018-06-03T03:19:23.698Z,100332.00
2018-06-03T03:21:51.221Z,100330.00
2018-06-03T03:24:18.766Z,100332.00
2018-06-03T03:26:46.310Z,100337.00
2018-06-03T03:29:13.870Z,100335.00
2018-06-03T03:31:41.401Z,100331.00
2018-06-03T03:34:11.031Z,100326.00
2018-06-03T03:36:38.579Z,100333.00
2018-06-03T03:39:06.366Z,100333.00
2018-06-03T03:41:33.916Z,100330.00
2018-06-03T03:44:01.474Z,100323.00
2018-06-03T03:46:29.026Z,100326.00
2018-06-03T03:48:56.570Z,100322.00
2018-06-03T03:51:24.134Z,100326.00
2018-06-03T03:53:51.814Z,100323.00
2018-06-03T03:56:19.378Z,100322.00
2018-06-03T03:58:46.921Z,100322.00
2018-06-03T04:01:14.473Z,100330.00
2018-06-03T04:03:42.010Z,100340.00
2018-06-03T04:06:09.588Z,100340.00
2018-06-03T04:08:37.125Z,100342.00
2018-06-03T04:11:04.874Z,100344.00
2018-06-03T04:13:32.426Z,100322.00
2018-06-03T04:15:59.994Z,100340.00
2018-06-03T04:18:27.554Z,100341.00
2018-06-03T04:20:55.093Z,100343.00
2018-06-03T04:23:22.629Z,100340.00
2018-06-03T04:25:50.193Z,100352.00
2018-06-03T04:28:17.747Z,100351.00
2018-06-03T04:30:45.286Z,100358.00
2018-06-03T04:33:12.837Z,100352.00
2018-06-03T04:35:40.394Z,100359.00
2018-06-03T04:38:07.987Z,100359.00
2018-06-03T04:40:35.541Z,100358.00
2018-06-03T04:43:03.094Z,100368.00
2018-06-03T04:45:30.654Z,100358.00
2018-06-03T04:47:58.203Z,100364.00
2018-06-03T04:50:25.908Z,100361.00
2018-06-03T04:52:53.467Z,100359.00
2018-06-03T04:55:21.014Z,100367.00
2018-06-03T04:57:48.580Z,100364.00
2018-06-03T05:00:16.122Z,100367.00
2018-06-03T05:02:43.662Z,100371.00
2018-06-03T05:05:11.223Z,100366.00
2018-06-03T05:07:38.797Z,100354.00
2018-06-03T05:10:06.401Z,100360.00
2018-06-03T05:12:33.961Z,100355.00
2018-06-03T05:15:01.536Z,100354.00
2018-06-03T05:17:29.114Z,100349.00
2018-06-03T05:19:56.678Z,100352.00
2018-06-03T05:22:24.246Z,100351.00
2018-06-03T05:24:51.870Z,100349.00
2018-06-03T05:27:19.426Z,100352.00
2018-06-03T05:29:46.993Z,100352.00
2018-06-03T05:32:14.547Z,100351.00
2018-06-03T05:34:42.077Z,100351.00
2018-06-03T05:37:09.651Z,100352.00
2018-06-03T05:39:37.186Z,100350.00
2018-06-03T05:42:04.805Z,100354.00
2018-06-03T05:44:32.342Z,100353.00
2018-06-03T05:46:59.898Z,100351.00
2018-06-03T05:49:27.448Z,100365.00
2018-06-03T05:51:55.007Z,100366.00
2018-06-03T05:54:22.568Z,100361.00
2018-06-03T05:56:50.137Z,100367.00
2018-06-03T05:59:17.706Z,100371.00
2018-06-03T06:01:45.270Z,100376.00
2018-06-03T06:04:12.830Z,100366.00
2018-06-03T06:06:40.402Z,100370.00
2018-06-03T06:09:07.967Z,100361.00
2018-06-03T06:11:35.517Z,100363.00
2018-06-03T06:14:03.074Z,100366.00
2018-06-03T06:16:30.618Z,100373.00
2018-06-03T06:18:58.777Z,100371.00
2018-06-03T06:21:26.313Z,100379.00
2018-06-03T06:23:53.945Z,100376.00
2018-06-03T06:26:21.510Z,100382.00
2018-06-03T06:28:49.053Z,100372.00
2018-06-03T06:31:16.619Z,100376.00
2018-06-03T06:33:44.189Z,100382.00
2018-06-03T06:36:11.729Z,100385.00
2018-06-03T06:38:39.262Z,100381.00
2018-06-03T06:41:06.818Z,100384.00
2018-06-03T06:43:34.352Z,100383.00
2018-06-03T06:46:01.908Z,100378.00
2018-06-03T06:48:29.466Z,100376.00
2018-06-03T06:50:57.016Z,100389.00
2018-06-03T06:53:24.593Z,100384.00
2018-06-03T06:55:52.165Z,100387.00
2018-06-03T06:58:19.717Z,100392.00
2018-06-03T07:00:47.286Z,100397.00
2018-06-03T07:03:14.825Z,100400.00
2018-06-03T07:05:42.449Z,100405.00
2018-06-03T07:08:09.995Z,100402.00
2018-06-03T07:10:37.547Z,100400.00
2018-06-03T07:13:05.258Z,100408.00
2018-06-03T07:15:32.786Z,100398.00
2018-06-03T07:18:00.318Z,100398.00
2018-06-03T07:20:27.870Z,100395.00
2018-06-03T07:22:55.418Z,100398.00
2018-06-03T07:25:23.002Z,100412.00
2018-06-03T07:27:50.538Z,100398.00
2018-06-03T07:30:18.080Z,100400.00
2018-06-03T07:32:45.617Z,100408.00
2018-06-03T07:35:13.178Z,100403.00
2018-06-03T07:37:40.718Z,100401.00
2018-06-03T07:40:08.271Z,100400.00
2018-06-03T07:42:35.810Z,100407.00
2018-06-03T07:45:03.447Z,100404.00
2018-06-03T07:47:30.993Z,100411.00
2018-06-03T07:49:58.562Z,100417.00
2018-06-03T07:52:26.118Z,100412.00
2018-06-03T07:54:53.661Z,100412.00
2018-06-03T07:57:21.211Z,100410.00
2018-06-03T07:59:48.737Z,100415.00
2018-06-03T08:02:16.286Z,100414.00
2018-06-03T08:04:43.842Z,100409.00
2018-06-03T08:07:11.389Z,100420.00
2018-06-03T08:09:38.939Z,100404.00
2018-06-03T08:12:06.478Z,100407.00
2018-06-03T08:14:34.038Z,100416.00
2018-06-03T08:17:01.621Z,100415.00
2018-06-03T08:19:29.169Z,100412.00
2018-06-03T08:21:56.717Z,100411.00
2018-06-03T08:24:24.290Z,100409.00
2018-06-03T08:26:51.846Z,100411.00
2018-06-03T08:29:19.386Z,100410.00
2018-06-03T08:31:46.935Z,100409.00
2018-06-03T08:34:14.487Z,100408.00
2018-06-03T08:36:42.051Z,100410.00
2018-06-03T08:39:09.677Z,100404.00
2018-06-03T08:41:37.183Z,100409.00
2018-06-03T08:44:04.806Z,100408.00
2018-06-03T08:46:32.350Z,100407.00
2018-06-03T08:48:59.894Z,100406.00
2018-06-03T08:51:27.434Z,100416.00
2018-06-03T08:53:54.975Z,100415.00
2018-06-03T08:56:22.574Z,100417.00
2018-06-03T08:58:50.126Z,100412.00
2018-06-03T09:01:17.665Z,100413.00
2018-06-03T09:03:45.206Z,100424.00
2018-06-03T09:06:12.778Z,100420.00
2018-06-03T09:08:40.339Z,100419.00
2018-06-03T09:14:30.787Z,100424.00
2018-06-03T09:17:11.282Z,100428.00
2018-06-03T09:22:54.954Z,100435.00
2018-06-03T09:25:22.562Z,100428.00
2018-06-03T09:27:50.110Z,100433.00
2018-06-03T09:30:17.665Z,100425.00
2018-06-03T09:32:45.225Z,100418.00
2018-06-03T09:35:12.767Z,100426.00
2018-06-03T09:37:40.297Z,100428.00
2018-06-03T09:40:07.857Z,100425.00
2018-06-03T09:42:35.421Z,100426.00
2018-06-03T09:45:02.986Z,100429.00
2018-06-03T09:47:30.537Z,100426.00
2018-06-03T09:49:58.057Z,100431.00
2018-06-03T09:52:25.601Z,100422.00
2018-06-03T09:54:53.130Z,100418.00
2018-06-03T09:57:20.678Z,100419.00
2018-06-03T09:59:48.218Z,100425.00
2018-06-03T10:02:15.751Z,100422.00
2018-06-03T10:04:43.285Z,100418.00
2018-06-03T10:07:10.852Z,100422.00
2018-06-03T10:09:38.409Z,100416.00
2018-06-03T10:15:11.106Z,100418.00
2018-06-03T10:17:38.666Z,100411.00
2018-06-03T10:20:06.210Z,100415.00
2018-06-03T10:22:33.749Z,100418.00
2018-06-03T10:25:01.297Z,100408.00
2018-06-03T10:27:28.853Z,100405.00
2018-06-03T10:29:56.414Z,100407.00
2018-06-03T10:32:25.021Z,100408.00
2018-06-03T10:34:52.577Z,100415.00
2018-06-03T10:37:20.134Z,100406.00
2018-06-03T10:39:47.682Z,100406.00
2018-06-03T10:42:15.210Z,100407.00
2018-06-03T10:44:42.761Z,100398.00
2018-06-03T10:47:10.346Z,100398.00
2018-06-03T10:49:37.910Z,100394.00
2018-06-03T10:52:05.462Z,100386.00
2018-06-03T10:54:33.054Z,100390.00
2018-06-03T10:57:00.554Z,100385.00
2018-06-03T10:59:28.115Z,100381.00
2018-06-03T11:01:55.670Z,100384.00
2018-06-03T11:04:23.214Z,100384.00
2018-06-03T11:06:50.755Z,100383.00
2018-06-03T11:09:18.303Z,100388.00
2018-06-03T11:11:45.832Z,100377.00
2018-06-03T11:14:13.378Z,100376.00
2018-06-03T11:16:40.927Z,100382.00
2018-06-03T11:19:08.474Z,100380.00
2018-06-03T11:21:36.014Z,100378.00
2018-06-03T11:24:03.645Z,100369.00
2018-06-03T11:26:31.208Z,100375.00
2018-06-03T11:28:58.758Z,100374.00
2018-06-03T11:31:26.285Z,100384.00
2018-06-03T11:33:53.826Z,100380.00
2018-06-03T11:36:21.378Z,100367.00
2018-06-03T11:38:48.918Z,100375.00
2018-06-03T11:41:16.826Z,100370.00
2018-06-03T11:43:44.382Z,100366.00
2018-06-03T11:46:11.942Z,100367.00
2018-06-03T11:48:39.511Z,100358.00
2018-06-03T11:51:07.067Z,100367.00
2018-06-03T11:53:34.648Z,100364.00
2018-06-03T11:56:02.178Z,100364.00
2018-06-03T11:58:52.833Z,100355.00
2018-06-03T12:01:20.401Z,100344.00
2018-06-03T12:03:47.952Z,100352.00
2018-06-03T12:06:15.511Z,100359.00
2018-06-03T12:08:43.087Z,100353.00
2018-06-03T12:11:10.632Z,100358.00
2018-06-03T12:13:38.207Z,100354.00
2018-06-03T12:16:05.763Z,100351.00
2018-06-03T12:18:33.316Z,100344.00
2018-06-03T12:21:00.890Z,100365.00
2018-06-03T12:23:28.422Z,100350.00
2018-06-03T12:25:55.979Z,100348.00
2018-06-03T12:28:23.533Z,100339.00
2018-06-03T12:30:51.099Z,100336.00
2018-06-03T12:33:18.650Z,100333.00
2018-06-03T12:35:46.228Z,100331.00
2018-06-03T12:38:13.770Z,100331.00
2018-06-03T12:40:41.328Z,100331.00
2018-06-03T12:43:08.874Z,100317.00
2018-06-03T12:45:36.453Z,100319.00
2018-06-03T12:48:04.290Z,100315.00
2018-06-03T12:50:31.829Z,100313.00
2018-06-03T12:52:59.366Z,100309.00
2018-06-03T12:55:26.906Z,100317.00
2018-06-03T12:57:54.446Z,100313.00
2018-06-03T13:00:21.989Z,100320.00
2018-06-03T13:02:49.529Z,100310.00
2018-06-03T13:05:17.066Z,100322.00
2018-06-03T13:07:44.627Z,100334.00
2018-06-03T13:10:12.177Z,100302.00
2018-06-03T13:12:40.646Z,100309.00
2018-06-03T13:15:08.198Z,100303.00
2018-06-03T13:17:35.753Z,100298.00
2018-06-03T13:20:03.812Z,100307.00
2018-06-03T13:22:31.361Z,100298.00
2018-06-03T13:24:58.906Z,100303.00
2018-06-03T13:27:26.451Z,100302.00
2018-06-03T13:29:53.998Z,100292.00
2018-06-03T13:32:21.558Z,100279.00
2018-06-03T13:34:49.106Z,100283.00
2018-06-03T13:37:16.660Z,100281.00
2018-06-03T13:39:44.198Z,100295.00
2018-06-03T13:42:11.753Z,100272.00
2018-06-03T13:44:39.289Z,100273.00
2018-06-03T13:47:06.867Z,100272.00
2018-06-03T13:49:34.426Z,100271.00
2018-06-03T13:52:01.987Z,100275.00
2018-06-03T13:54:29.529Z,100270.00
2018-06-03T13:56:57.154Z,100283.00
2018-06-03T13:59:24.693Z,100254.00
2018-06-03T14:05:19.626Z,100264.00
2018-06-03T14:07:47.195Z,100263.00
2018-06-03T14:13:14.429Z,100269.00
2018-06-03T14:21:46.005Z,100258.00
2018-06-03T14:24:13.554Z,100257.00
2018-06-03T14:26:41.097Z,100249.00
2018-06-03T14:29:08.638Z,100248.00
2018-06-03T14:31:36.165Z,100250.00
2018-06-03T14:34:03.750Z,100253.00
2018-06-03T14:36:31.303Z,100249.00
2018-06-03T14:38:58.846Z,100242.00
2018-06-03T14:41:26.377Z,100237.00
2018-06-03T14:43:53.930Z,100242.00
2018-06-03T14:46:21.478Z,100245.00
2018-06-03T14:48:49.047Z,100248.00
2018-06-03T14:51:16.597Z,100243.00
2018-06-03T14:53:44.129Z,100238.00
2018-06-03T14:56:11.667Z,100237.00
2018-06-03T14:58:39.153Z,100232.00
2018-06-03T15:01:06.714Z,100236.00
2018-06-03T15:03:34.266Z,100237.00
2018-06-03T15:06:01.823Z,100229.00
2018-06-03T15:08:29.388Z,100229.00
2018-06-03T15:10:56.926Z,100225.00
2018-06-03T15:13:24.477Z,100223.00
2018-06-03T15:15:52.034Z,100221.00
2018-06-03T15:18:19.605Z,100223.00
2018-06-03T15:20:47.158Z,100222.00
2018-06-03T15:23:45.039Z,100221.00
2018-06-03T15:26:12.614Z,100210.00
2018-06-03T15:28:40.166Z,100217.00
2018-06-03T15:31:07.702Z,100215.00
2018-06-03T15:33:35.250Z,100210.00
2018-06-03T15:36:02.814Z,100200.00
2018-06-03T15:38:30.359Z,100201.00
2018-06-03T15:40:57.921Z,100203.00
2018-06-03T15:43:25.462Z,100194.00
2018-06-03T15:45:53.017Z,100198.00
2018-06-03T15:48:20.569Z,100203.00
2018-06-03T15:50:48.129Z,100199.00
2018-06-03T15:53:15.677Z,100193.00
2018-06-03T15:55:43.241Z,100200.00
2018-06-03T15:58:10.783Z,100192.00
2018-06-03T16:00:38.356Z,100207.00
2018-06-03T16:03:05.931Z,100193.00
2018-06-03T16:05:33.484Z,100197.00
2018-06-03T16:08:01.103Z,100190.00
2018-06-03T16:10:28.670Z,100176.00
2018-06-03T16:12:56.242Z,100175.00
2018-06-03T16:15:23.818Z,100174.00
2018-06-03T16:17:51.375Z,100174.00
2018-06-03T16:20:18.952Z,100171.00
2018-06-03T16:22:46.499Z,100165.00
2018-06-03T16:25:14.042Z,100166.00
2018-06-03T16:27:41.641Z,100172.00
2018-06-03T16:30:09.150Z,100173.00
2018-06-03T16:32:36.681Z,100172.00
2018-06-03T16:35:04.361Z,100161.00
2018-06-03T16:37:31.980Z,100167.00
2018-06-03T16:39:59.555Z,100160.00
2018-06-03T16:42:27.114Z,100153.00
2018-06-03T16:44:54.673Z,100155.00
2018-06-03T16:47:22.222Z,100157.00
2018-06-03T16:49:49.772Z,100149.00
2018-06-03T16:52:17.345Z,100155.00
2018-06-03T16:54:44.878Z,100150.00
2018-06-03T16:57:12.430Z,100153.00
2018-06-03T16:59:40.046Z,100145.00
2018-06-03T17:02:07.593Z,100147.00
2018-06-03T17:04:35.159Z,100147.00
2018-06-03T17:07:02.770Z,100146.00
2018-06-03T17:09:30.354Z,100135.00
2018-06-03T17:11:57.914Z,100142.00
2018-06-03T17:14:25.476Z,100144.00
2018-06-03T17:16:53.038Z,100141.00
2018-06-03T17:19:20.590Z,100145.00
2018-06-03T17:21:48.150Z,100142.00
2018-06-03T17:24:15.701Z,100139.00
2018-06-03T17:26:43.258Z,100139.00
2018-06-03T17:29:10.815Z,100137.00
2018-06-03T17:31:38.403Z,100147.00
2018-06-03T17:34:05.964Z,100139.00
2018-06-03T17:36:33.519Z,100137.00
2018-06-03T17:39:01.065Z,100135.00
2018-06-03T17:41:28.634Z,100137.00
2018-06-03T17:43:56.170Z,100140.00
2018-06-03T17:46:23.738Z,100132.00
2018-06-03T17:48:51.271Z,100132.00
2018-06-03T17:51:18.810Z,100127.00
2018-06-03T17:53:46.366Z,100123.00
2018-06-03T17:56:23.862Z,100122.00
2018-06-03T17:58:51.556Z,100127.00
2018-06-03T18:01:24.934Z,100126.00
2018-06-03T18:03:55.989Z,100117.00
2018-06-03T18:06:26.840Z,100115.00
2018-06-03T18:08:54.386Z,100114.00
2018-06-03T18:11:26.150Z,100122.00
2018-06-03T18:13:53.710Z,100117.00
2018-06-03T18:16:21.259Z,100118.00
2018-06-03T18:18:48.822Z,100117.00
2018-06-03T18:21:18.419Z,100114.00
2018-06-03T18:23:46.019Z,100112.00
2018-06-03T18:26:13.590Z,100118.00
2018-06-03T18:28:41.162Z,100109.00
2018-06-03T18:31:08.723Z,100112.00
2018-06-03T18:33:36.291Z,100100.00
2018-06-03T18:36:03.873Z,100107.00
2018-06-03T18:38:31.425Z,100098.00
2018-06-03T18:40:59.003Z,100106.00
2018-06-03T18:43:29.974Z,100115.00
2018-06-03T18:45:57.502Z,100107.00
2018-06-03T18:48:25.062Z,100100.00
2018-06-03T18:50:52.614Z,100102.00
2018-06-03T18:53:22.239Z,100094.00
2018-06-03T18:55:49.782Z,100097.00
2018-06-03T18:58:17.337Z,100099.00
2018-06-03T19:00:48.210Z,100089.00
2018-06-03T19:03:15.786Z,100091.00
2018-06-03T19:05:43.350Z,100093.00
2018-06-03T19:11:21.441Z,100093.00
2018-06-03T19:13:49.052Z,100103.00
2018-06-03T19:16:33.556Z,100092.00
2018-06-03T19:19:01.115Z,100096.00
2018-06-03T19:21:28.667Z,100097.00
2018-06-03T19:23:56.286Z,100100.00
2018-06-03T19:26:25.857Z,100096.00
2018-06-03T19:28:53.414Z,100100.00
2018-06-03T19:31:20.961Z,100095.00
2018-06-03T19:33:48.526Z,100091.00
2018-06-03T19:36:16.074Z,100095.00
2018-06-03T19:38:43.650Z,100101.00
2018-06-03T19:41:11.198Z,100103.00
2018-06-03T19:43:38.761Z,100098.00
2018-06-03T19:46:06.347Z,100106.00
2018-06-03T19:48:33.886Z,100102.00
2018-06-03T19:51:01.447Z,100102.00
2018-06-03T19:53:28.995Z,100101.00
2018-06-03T19:55:56.556Z,100105.00
2018-06-03T19:58:24.178Z,100102.00
2018-06-03T20:00:52.092Z,100112.00
2018-06-03T20:03:19.632Z,100102.00
2018-06-03T20:05:47.193Z,100097.00
2018-06-03T20:08:22.059Z,100103.00
2018-06-03T20:11:16.373Z,100093.00
2018-06-03T20:13:44.930Z,100104.00
2018-06-03T20:16:12.491Z,100106.00
2018-06-03T20:21:45.484Z,100100.00
2018-06-03T20:24:13.059Z,100106.00
2018-06-03T20:26:40.659Z,100097.00
2018-06-03T20:29:08.200Z,100096.00
2018-06-03T20:31:35.744Z,100096.00
2018-06-03T20:34:03.297Z,100092.00
2018-06-03T20:36:30.841Z,100106.00
2018-06-03T20:38:58.386Z,100107.00
2018-06-03T20:41:25.941Z,100094.00
2018-06-03T20:43:53.485Z,100102.00
2018-06-03T20:46:44.051Z,100107.00
2018-06-03T20:49:11.603Z,100104.00
2018-06-03T20:51:56.850Z,100107.00
2018-06-03T20:54:24.397Z,100098.00
2018-06-03T20:56:52.022Z,100101.00
2018-06-03T20:59:19.582Z,100104.00
2018-06-03T21:02:14.902Z,100113.00
2018-06-03T21:04:42.493Z,100100.00
2018-06-03T21:07:10.050Z,100097.00
2018-06-03T21:09:37.723Z,100094.00
2018-06-03T21:12:05.662Z,100099.00
2018-06-03T21:14:33.218Z,100095.00
2018-06-03T21:17:00.782Z,100101.00
2018-06-03T21:19:28.333Z,100100.00
2018-06-03T21:21:55.937Z,100106.00
2018-06-03T21:24:23.499Z,100104.00
2018-06-03T21:26:51.054Z,100102.00
2018-06-03T21:29:18.594Z,100108.00
2018-06-03T21:31:46.147Z,100111.00
2018-06-03T21:34:13.678Z,100106.00
2018-06-03T21:36:41.227Z,100100.00
2018-06-03T21:39:08.773Z,100113.00
2018-06-03T21:41:36.317Z,100110.00
2018-06-03T21:44:03.878Z,100105.00
2018-06-03T21:46:31.431Z,100103.00
2018-06-03T21:48:58.971Z,100100.00
2018-06-03T21:51:26.557Z,100096.00
2018-06-03T21:53:54.106Z,100104.00
2018-06-03T21:56:21.651Z,100096.00
2018-06-03T21:58:49.221Z,100097.00
2018-06-03T22:01:16.770Z,100092.00
2018-06-03T22:03:44.323Z,100087.00
2018-06-03T22:06:29.001Z,100092.00
2018-06-03T22:08:56.565Z,100086.00
2018-06-03T22:11:24.105Z,100088.00
2018-06-03T22:13:51.663Z,100082.00
2018-06-03T22:16:19.201Z,100088.00
2018-06-03T22:18:46.762Z,100087.00
2018-06-03T22:21:14.349Z,100087.00
2018-06-03T22:23:41.910Z,100092.00
2018-06-03T22:26:09.469Z,100084.00
2018-06-03T22:28:37.025Z,100080.00
2018-06-03T22:31:04.602Z,100086.00
2018-06-03T22:33:32.159Z,100079.00
2018-06-03T22:35:59.701Z,100076.00
2018-06-03T22:38:27.258Z,100081.00
2018-06-03T22:40:54.818Z,100078.00
2018-06-03T22:43:22.370Z,100074.00
2018-06-03T22:45:49.926Z,100070.00
2018-06-03T22:48:17.478Z,100069.00
2018-06-03T22:50:45.029Z,100081.00
2018-06-03T22:53:12.575Z,100075.00
2018-06-03T22:55:40.130Z,100067.00
2018-06-03T22:58:07.694Z,100075.00
2018-06-03T23:00:35.386Z,100074.00
2018-06-03T23:03:08.730Z,100066.00
2018-06-03T23:05:36.305Z,100076.00
2018-06-03T23:08:03.875Z,100077.00
2018-06-03T23:10:31.421Z,100080.00
2018-06-03T23:12:58.977Z,100075.00
2018-06-03T23:15:27.336Z,100069.00
2018-06-03T23:17:54.895Z,100065.00
2018-06-03T23:20:22.433Z,100070.00
2018-06-03T23:22:49.982Z,100066.00
2018-06-03T23:25:17.543Z,100074.00
2018-06-03T23:27:45.090Z,100067.00
2018-06-03T23:30:12.662Z,100069.00
2018-06-03T23:32:40.261Z,100078.00
2018-06-03T23:35:07.814Z,100068.00
2018-06-03T23:37:35.362Z,100060.00
2018-06-03T23:40:02.959Z,100061.00
2018-06-03T23:42:30.505Z,100064.00
2018-06-03T23:44:58.065Z,100057.00
2018-06-03T23:47:25.645Z,100059.00
2018-06-03T23:49:53.209Z,100061.00
2018-06-03T23:52:20.762Z,100064.00
2018-06-03T23:54:48.318Z,100063.00
2018-06-03T23:57:15.851Z,100061.00
2018-06-03T23:59:43.394Z,100062.00
